Weather History for KAIG - June, 2014

Change the Weather History Date:

Tuesday, June 3, 2014

  Actual Average Record
Temperature  
Mean Temperature 60 °F -  
Max Temperature 70 °F 71 °F 88 °F (1948)
Min Temperature 51 °F 44 °F 34 °F (1985)
Degree Days  
Heating Degree Days 4    
Growing Degree Days 10 (Base 50)    
Moisture  
Dew Point 52 °F    
Average Humidity 71    
Maximum Humidity 91    
Minimum Humidity 52    
Precipitation  
Precipitation 0.02 in - - ()
Sea Level Pressure  
Sea Level Pressure 29.83 in    
Wind  
Wind Speed 16 mph (WNW)    
Max Wind Speed 25 mph    
Max Gust Speed 34 mph    
Visibility 10 miles    
Events Rain    
Averages and records for this station are not official NWS values.
T = Trace of Precipitation, MM = Missing Value Source: NWS Daily Summary

Daily Weather History Graph

Daily Weather History Graph

Search for Another Location

Airport or City:

Trip Planner

Search our weather history database for the weather conditions in past years. The results will help you decide how hot, cold, wet, or windy it might be!

Date:

Astronomy

Jun. 03, 2014 Rise Set
Actual Time 5:11 AM CDT 8:38 PM CDT
Civil Twilight 4:34 AM CDT 9:15 PM CDT
Nautical Twilight 3:46 AM CDT 10:03 PM CDT
Astronomical Twilight 2:44 AM CDT 11:05 PM CDT
Moon 10:44 AM CDT (6/3) No Moon Set
Length of Visible Light 16h 40m
Length of Day
15h 26m
Waxing Crescent, 30% of the Moon is Illuminated
Jun 3
Waxing Crescent
Jun 5
First Quarter
Jun 12
Full
Jun 19
Last Quarter
Jun 27
New

Hourly Weather History & Observations

Time (CDT) Temp. Dew Point Humidity Pressure Visibility Wind Dir Wind Speed Gust Speed Precip Events Conditions
12:15 AM 62.4 °F 55.6 °F 78% 29.67 in 10.0 mi WSW 19.6 mph 28.8 mph N/A   Clear
12:35 AM 62.2 °F 55.4 °F 78% 29.68 in 10.0 mi WSW 16.1 mph 26.5 mph N/A   Clear
12:55 AM 61.7 °F 54.7 °F 78% 29.68 in 10.0 mi West 17.3 mph 26.5 mph N/A   Scattered Clouds
1:15 AM 60.8 °F 54.0 °F 78% 29.68 in 10.0 mi WSW 16.1 mph 23.0 mph N/A   Scattered Clouds
1:35 AM 60.1 °F 52.9 °F 77% 29.68 in 10.0 mi WSW 16.1 mph 21.9 mph N/A   Mostly Cloudy
1:55 AM 60.1 °F 52.3 °F 76% 29.68 in 10.0 mi West 25.3 mph 29.9 mph N/A   Mostly Cloudy
2:15 AM 59.5 °F 51.8 °F 76% 29.69 in 10.0 mi West 21.9 mph 27.6 mph N/A   Overcast
2:35 AM 59.0 °F 51.8 °F 77% 29.69 in 10.0 mi West 21.9 mph 27.6 mph N/A   Overcast
2:55 AM 57.9 °F 51.3 °F 78% 29.69 in 10.0 mi West 19.6 mph 29.9 mph N/A   Mostly Cloudy
3:15 AM 57.7 °F 51.1 °F 78% 29.70 in 10.0 mi West 16.1 mph 28.8 mph N/A   Overcast
3:35 AM 57.4 °F 51.3 °F 80% 29.70 in 10.0 mi West 15.0 mph 25.3 mph N/A   Overcast
3:55 AM 57.0 °F 49.6 °F 76% 29.70 in 10.0 mi West 18.4 mph 28.8 mph N/A   Overcast
4:15 AM 56.3 °F 50.4 °F 80% 29.71 in 10.0 mi West 19.6 mph 33.4 mph N/A   Overcast
4:35 AM 55.4 °F 50.5 °F 84% 29.73 in 7.0 mi WNW 18.4 mph 29.9 mph 0.01 in Rain Rain
4:55 AM 53.6 °F 50.9 °F 91% 29.73 in 10.0 mi West 20.7 mph 25.3 mph 0.02 in   Overcast
5:15 AM 53.1 °F 49.8 °F 89% 29.74 in 10.0 mi West 19.6 mph 25.3 mph N/A   Mostly Cloudy
5:35 AM 52.7 °F 48.7 °F 86% 29.75 in 10.0 mi WNW 19.6 mph 25.3 mph N/A   Mostly Cloudy
5:55 AM 52.5 °F 48.2 °F 85% 29.76 in 10.0 mi WNW 20.7 mph 32.2 mph N/A   Mostly Cloudy
6:15 AM 51.8 °F 47.7 °F 86% 29.78 in 10.0 mi WNW 19.6 mph 34.5 mph N/A   Mostly Cloudy
6:35 AM 52.0 °F 47.7 °F 85% 29.79 in 10.0 mi WNW 19.6 mph 26.5 mph N/A   Mostly Cloudy
6:55 AM 52.7 °F 47.5 °F 82% 29.81 in 10.0 mi WNW 19.6 mph 26.5 mph N/A   Overcast
7:15 AM 52.7 °F 46.8 °F 80% 29.81 in 10.0 mi WNW 15.0 mph 25.3 mph N/A   Overcast
7:35 AM 53.1 °F 47.1 °F 80% 29.82 in 10.0 mi WNW 19.6 mph 26.5 mph N/A   Overcast
7:55 AM 53.1 °F 47.5 °F 81% 29.83 in 10.0 mi WNW 17.3 mph 24.2 mph N/A   Overcast
8:15 AM 54.0 °F 47.5 °F 79% 29.84 in 10.0 mi WNW 18.4 mph 27.6 mph N/A   Overcast
8:35 AM 56.1 °F 48.2 °F 75% 29.85 in 10.0 mi NW 17.3 mph 26.5 mph N/A   Overcast
8:55 AM 56.5 °F 48.6 °F 75% 29.86 in 10.0 mi WNW 17.3 mph 27.6 mph N/A   Overcast
9:15 AM 57.4 °F 48.7 °F 73% 29.86 in 10.0 mi WNW 16.1 mph 27.6 mph N/A   Overcast
9:35 AM 57.6 °F 48.7 °F 72% 29.86 in 10.0 mi WNW 13.8 mph 26.5 mph N/A   Overcast
9:55 AM 58.5 °F 49.3 °F 72% 29.86 in 10.0 mi WNW 11.5 mph - N/A   Overcast
10:15 AM 59.0 °F 50.4 °F 73% 29.87 in 10.0 mi West 13.8 mph 23.0 mph N/A   Overcast
10:35 AM 59.7 °F 50.7 °F 72% 29.88 in 10.0 mi West 19.6 mph 27.6 mph N/A   Overcast
10:55 AM 60.8 °F 51.1 °F 70% 29.88 in 10.0 mi WNW 20.7 mph 26.5 mph N/A   Overcast
11:15 AM 62.1 °F 52.0 °F 70% 29.88 in 10.0 mi West 17.3 mph 26.5 mph N/A   Mostly Cloudy
11:35 AM 62.6 °F 52.5 °F 70% 29.90 in 10.0 mi West 15.0 mph 24.2 mph N/A   Mostly Cloudy
11:55 AM 63.9 °F 52.5 °F 67% 29.90 in 10.0 mi West 17.3 mph 27.6 mph N/A   Overcast
12:15 PM 63.3 °F 51.8 °F 66% 29.90 in 10.0 mi West 17.3 mph 21.9 mph N/A   Overcast
12:35 PM 65.1 °F 53.2 °F 65% 29.89 in 10.0 mi WNW 19.6 mph 23.0 mph N/A   Mostly Cloudy
12:55 PM 65.3 °F 53.2 °F 65% 29.89 in 10.0 mi West 12.7 mph 24.2 mph N/A   Mostly Cloudy
1:15 PM 65.5 °F 52.7 °F 63% 29.88 in 10.0 mi WNW 17.3 mph 21.9 mph N/A   Mostly Cloudy
1:35 PM 66.0 °F 52.5 °F 62% 29.88 in 10.0 mi West 16.1 mph 26.5 mph N/A   Mostly Cloudy
1:55 PM 66.7 °F 52.5 °F 60% 29.88 in 10.0 mi West 16.1 mph 21.9 mph N/A   Mostly Cloudy
2:15 PM 65.5 °F 52.0 °F 62% 29.88 in 10.0 mi West 15.0 mph 26.5 mph N/A   Mostly Cloudy
2:35 PM 66.0 °F 51.8 °F 60% 29.88 in 10.0 mi WNW 15.0 mph 21.9 mph N/A   Mostly Cloudy
2:55 PM 66.2 °F 52.7 °F 62% 29.88 in 10.0 mi WNW 12.7 mph 18.4 mph N/A   Overcast
3:15 PM 68.7 °F 52.5 °F 56% 29.88 in 10.0 mi West 17.3 mph 24.2 mph N/A   Mostly Cloudy
3:35 PM 69.3 °F 52.3 °F 55% 29.87 in 10.0 mi WNW 21.9 mph 27.6 mph N/A   Scattered Clouds
3:55 PM 69.8 °F 53.2 °F 56% 29.87 in 10.0 mi West 15.0 mph 24.2 mph N/A   Scattered Clouds
4:15 PM 70.2 °F 54.0 °F 56% 29.87 in 10.0 mi WNW 17.3 mph 26.5 mph N/A   Scattered Clouds
4:35 PM 69.1 °F 51.6 °F 54% 29.87 in 10.0 mi WNW 15.0 mph 20.7 mph N/A   Clear
4:55 PM 69.3 °F 51.8 °F 54% 29.88 in 10.0 mi West 12.7 mph 23.0 mph N/A   Scattered Clouds
5:15 PM 69.8 °F 52.2 °F 53% 29.87 in 10.0 mi West 15.0 mph 19.6 mph N/A   Mostly Cloudy
5:35 PM 70.3 °F 52.2 °F 52% 29.87 in 10.0 mi WNW 17.3 mph 25.3 mph N/A   Mostly Cloudy
5:55 PM 69.8 °F 51.4 °F 52% 29.87 in 10.0 mi WNW 13.8 mph - N/A   Scattered Clouds
6:15 PM 69.3 °F 52.3 °F 55% 29.87 in 10.0 mi WNW 11.5 mph - N/A   Scattered Clouds
6:35 PM 69.6 °F 51.8 °F 53% 29.88 in 10.0 mi WNW 11.5 mph 18.4 mph N/A   Scattered Clouds
6:55 PM 68.9 °F 52.3 °F 55% 29.88 in 10.0 mi WNW 8.1 mph - N/A   Mostly Cloudy
7:15 PM 67.1 °F 52.5 °F 59% 29.88 in 10.0 mi WNW 8.1 mph - N/A   Scattered Clouds
7:35 PM 67.1 °F 52.2 °F 59% 29.87 in 10.0 mi WNW 8.1 mph - N/A   Clear
7:55 PM 66.2 °F 53.1 °F 63% 29.86 in 10.0 mi WNW 3.5 mph - N/A   Clear
8:15 PM 65.5 °F 53.1 °F 64% 29.87 in 10.0 mi West 3.5 mph - N/A   Scattered Clouds
8:35 PM 64.0 °F 53.4 °F 68% 29.87 in 10.0 mi Calm Calm - N/A   Mostly Cloudy
8:55 PM 62.8 °F 53.2 °F 71% 29.88 in 10.0 mi Calm Calm - N/A   Mostly Cloudy
9:15 PM 62.4 °F 52.7 °F 70% 29.88 in 10.0 mi Calm Calm - N/A   Overcast
9:35 PM 59.2 °F 55.2 °F 87% 29.90 in 10.0 mi Calm Calm - N/A   Overcast
9:55 PM 63.3 °F 52.3 °F 67% 29.91 in 10.0 mi Calm Calm - N/A   Overcast
10:15 PM 61.3 °F 54.9 °F 79% 29.91 in 10.0 mi Calm Calm - N/A   Overcast
10:35 PM 60.4 °F 55.6 °F 84% 29.91 in 10.0 mi Calm Calm - N/A   Overcast
10:55 PM 61.3 °F 54.3 °F 78% 29.90 in 10.0 mi Calm Calm - N/A   Overcast
11:15 PM 59.7 °F 55.8 °F 87% 29.91 in 10.0 mi Calm Calm - N/A   Overcast
11:35 PM 59.5 °F 54.7 °F 84% 29.92 in 10.0 mi Calm Calm - N/A   Overcast
11:55 PM 59.2 °F 55.6 °F 88% 29.91 in 10.0 mi Calm Calm - N/A   Overcast